Central Sierra Snow Lab Weather observations

Data are for 10 minute period ending at time listed.
 Day   Time    Incoming  Reflected   Ave.   Ave.    Ave.    Vector  Max.    Ave.    Total    Snow   
  of    of      Solar     Solar      Air    Rel.    Wind    Wind    Wind   Baro.   Precip.   Depth  
Year   Day     Radiation Radiation   Temp.  Humid.  Speed   Dir.    Gust   Press.                   
2020   (PST)    Kw/m2     Kw/m2       F       %      mph     deg.    mph     mb.     in.      in.   
----------------------------------------------------------------------------------------------------
  16    4:00    0.000     999.000     27.0     41     3.8     222    14.7   781.60   -2.96   165.20  
  16    4:10    0.000     999.000     27.1     43     3.0     230    10.1   781.50   -2.96   165.10  
  16    4:20    0.000     999.000     27.4     43     3.7     205    12.0   781.30   -2.96   165.20  
  16    4:30    0.000     999.000     27.1     46     2.7     231    11.4   781.20   -2.96   165.20  
  16    4:40    0.000     999.000     26.8     48     2.4     241     8.6   781.10   -2.96   165.20  
  16    4:50    0.000     999.000     27.0     48     4.1     218    14.2   781.00   -2.96   165.20  
  16    5:00    0.000     999.000     27.1     49     3.0     216     7.5   781.00   -2.96   165.20  
  16    5:10    0.000     999.000     27.1     50     3.4     233     8.0   780.90   -2.96   165.20  
  16    5:20    0.000     999.000     27.1     50     2.8     210     6.2   780.80   -2.96   165.20  
  16    5:30    0.000     999.000     27.1     51     3.2     231    13.0   780.60   -2.96   165.20  
  16    5:40    0.000     999.000     27.4     50     4.3     225    12.9   780.50   -2.96   165.20  
  16    5:50    0.000     999.000     27.7     49     4.5     196    14.9   780.30   -2.96   165.20  
  16    6:00    0.000     999.000     27.8     50     3.5     221     9.8   780.20   -2.96   165.20  
  16    6:10    0.000     999.000     27.9     49     3.7     227     9.2   780.10   -2.96   165.10  
  16    6:20    0.000     999.000     28.0     49     3.1     230     8.4   780.10   -2.96   165.20  
  16    6:30    0.000     999.000     27.9     50     3.3     222     9.0   780.10   -2.96   165.10  
  16    6:40    0.000     999.000     27.6     52     3.0     237    10.8   780.10   -2.96   165.10  
  16    6:50    0.000     999.000     27.4     54     2.9     240     9.5   780.20   -2.96   165.10  
  16    7:00    0.000     999.000     27.1     56     2.0     216     5.0   780.10   -2.96   165.10  
  16    7:10    0.000     999.000     26.8     56     2.0     233     6.8   780.20   -2.96   165.20  
  16    7:20    0.001     999.000     26.5     58     1.9     234     4.7   780.30   -2.96   165.00  
  16    7:30    0.002     999.000     26.3     57     2.2     246     6.8   780.30   -2.96   164.90  
  16    7:40    0.005     999.000     26.1     58     2.1     235     6.6   780.30   -2.96   164.90  
  16    7:50    0.014     999.000     26.0     58     2.3     230     7.1   780.40   -2.96   164.90  
  16    8:00    0.017     999.000     26.0     58     2.4     222     8.0   780.40   -2.96   165.00  
  16    8:10    0.028     999.000     25.8     60     2.7     244     7.5   780.30   -2.96   164.90  
  16    8:20    0.044     999.000     25.9     60     2.8     219    10.2   780.20   -2.96   164.90  
  16    8:30    0.045     999.000     25.9     62     2.8     229     9.2   780.10   -2.96   164.80  
  16    8:40    0.045     999.000     26.1     60     3.8     194    12.8   780.10   -2.96   164.90  
  16    8:50    0.062     999.000     26.8     58     5.7     197    16.0   779.80   -2.96   165.00  
  16    9:00    0.065     999.000     27.2     58     5.3     207    15.5   779.70   -2.96   165.10  
  16    9:10    0.091     999.000     27.3     58     4.6     229    12.7   779.40   -2.96   165.10  
  16    9:20    0.082     999.000     27.4     58     5.7     224    18.5   779.30   -2.96   165.10  
  16    9:30    0.083     999.000     27.7     55     6.0     220    20.3   778.90   -2.96   165.10  
  16    9:40    0.070     999.000     27.9     54     6.3     213    19.3   778.70   -2.96   165.10  
  16    9:50    0.056     999.000     28.0     50     6.1     233    17.2   778.40   -2.96   165.10  
  16   10:00    0.062     999.000     28.2     50     5.0     226    14.9   778.20   -2.96   165.00  
  16   10:10    0.013     999.000     27.8     56     5.1     215    14.8   778.60   -2.96   165.00  
  16   10:20    0.017     999.000     26.6     67     5.3     223    17.0   778.90   -2.96   164.90  
  16   10:30    0.024     999.000     25.5     77     5.5     207    18.6   779.20   -2.96   164.80  
  16   10:40    0.027     999.000     24.4     83     6.7     226    23.1   779.10   -2.96   127.80  
  16   10:50    0.027     999.000     24.0     87     4.8     216    13.7   778.90   -2.96   152.40  
  16   11:00    0.033     999.000     23.9     88     4.7     220    16.3   778.60   -2.96   134.10  
  16   11:10    0.030     999.000     24.0     88     4.1     233    14.5   778.30   -2.96   138.80  
  16   11:20    0.032     999.000     24.0     89     4.1     220    10.3   778.20   -2.96   92.00  
  16   11:30    0.023     999.000     23.8     91     3.2     239     8.2   777.80   -2.96   159.40  
  16   11:40    0.009     999.000     23.6     94     3.9     224    11.6   777.50   -2.96   168.10  
  16   11:50    0.010     999.000     23.6     97     3.1     246    10.0   777.10   -2.97   129.40  
  16   12:00    0.003     999.000     23.6     97     3.1     238     9.8   777.20   -2.96   135.50  
  16   12:10    0.002     999.000     23.7     98     3.1     221     7.5   777.40   -2.97   167.90  
  16   12:20    0.004     999.000     23.8     98     4.3     203     9.8   777.60   -2.96   158.10  
  16   12:30    0.006     999.000     23.9     98     3.0     218     7.9   777.60   -2.97   176.00  
  16   12:40    0.005     999.000     23.6     98     3.6     228     9.7   777.50   -2.97   169.90  
  16   12:50    0.004     999.000     23.1     97     3.4     222    10.6   777.50   -2.97   173.60  
  16   13:00    0.004     999.000     22.4     97     4.1     236    12.0   777.80   -2.96   157.80  
  16   13:10    0.006     999.000     21.8     96     4.8     240    12.7   777.90   -2.96   121.00  
  16   13:20    0.006     999.000     21.6     96     2.9     214     6.5   777.90   -2.96   167.70  
  16   13:30    0.005     999.000     21.5     97     2.4     211     4.1   777.90   -2.96   167.00  
  16   13:40    0.005     999.000     21.6     97     3.6     227    10.5   777.80   -2.97   159.90  
  16   13:50    0.005     999.000     21.5     97     3.3     200     7.7   777.60   -2.96   164.50  
  16   14:00    0.004     999.000     21.6     97     2.6     212    11.4   777.40   -2.96   113.20  
  16   14:10    0.002     999.000     21.5     97     3.3     211     9.0   777.50   -2.96   108.50  
  16   14:20    0.001     999.000     21.5     97     2.5     224     7.5   777.60   -2.96   156.10  
  16   14:30    0.002     999.000     21.5     97     2.8     208     7.3   777.70   -2.97   158.30  
  16   14:40    0.002     999.000     21.6     97     2.4     220     7.0   777.50   -2.96   164.30  
  16   14:50    0.001     999.000     21.7     97     3.0     214     8.9   777.60   -2.96   78.40  
  16   15:00    0.002     999.000     21.9     97     1.9     212     3.8   777.70   -2.96   95.40  
  16   15:10    0.002     999.000     22.1     97     2.6     207     6.5   777.80   -2.96   115.20  
  16   15:20    0.002     999.000     22.1     97     2.5     218     6.7   777.90   -2.96   150.30  
  16   15:30    0.001     999.000     22.0     97     1.8     213     5.8   777.80   -2.97   173.30  
  16   15:40    0.001     999.000     21.9     97     2.5     213     7.5   777.90   -2.96   126.60  
  16   15:50    0.001     999.000     21.9     97     2.1     214     5.3   778.00   -2.96   170.40  
  16   16:00    0.001     999.000     21.8     97     1.9     223     4.9   778.20   -2.96   169.20  
  16   16:10    0.001     999.000     21.7     97     2.5     211     6.0   778.40   -2.96   166.20  
  16   16:20    0.001     999.000     21.6     97     2.7     236    14.1   778.50   -2.96   172.80  
  16   16:30    0.001     999.000     21.4     96     3.1     225    10.0   778.40   -2.96   171.40  
  16   16:40    0.000     999.000     21.3     97     2.6     211     5.6   778.80   -2.96   175.90  
  16   16:50    0.000     999.000     21.1     96     3.6     217     8.2   778.80   -2.96   175.50  
  16   17:00    0.000     999.000     21.0     96     3.0     201     7.8   779.10   -2.96   174.70  
  16   17:10    0.000     999.000     20.8     95     3.4     219     9.7   779.50   -2.97   176.00  
  16   17:20    0.000     999.000     20.5     94     3.8     231    12.1   779.60   -2.96   174.50  
  16   17:30    0.000     999.000     20.1     94     3.7     213     9.3   779.70   -2.96   167.50  
  16   17:40    0.000     999.000     19.8     94     4.0     204     8.5   779.80   -2.96   174.60  
  16   17:50    0.000     999.000     19.6     95     3.6     211     9.3   780.00   -2.96   174.20  
  16   18:00    0.000     999.000     19.5     94     3.1     195     7.1   780.30   -2.96   173.70  
  16   18:10    0.000     999.000     19.4     96     2.5     204     5.8   780.40   -2.96   176.00  
  16   18:20    0.000     999.000     19.4     96     2.2     219     6.0   780.50   -2.97   175.70  
  16   18:30    0.000     999.000     19.4     96     2.2     222     5.8   780.40   -2.96   175.30  
  16   18:40    0.000     999.000     19.5     96     2.8     217    11.5   780.50   -2.96   176.00  
  16   18:50    0.000     999.000     19.5     96     2.1     212     7.1   780.70   -2.96   176.00  
  16   19:00    0.000     999.000     19.6     96     2.4     224     7.1   780.80   -2.96   174.50  
  16   19:10    0.000     999.000     19.7     96     2.4     204     7.5   780.90   -2.96   176.00  
  16   19:20    0.000     999.000     19.7     96     2.6     214     9.6   781.00   -2.96   176.00  
  16   19:30    0.000     999.000     19.7     96     3.7     239    13.6   781.20   -2.96   160.60  
  16   19:40    0.000     999.000     19.5     95     4.5     212    14.4   781.40   -2.96   60.00  
  16   19:50    0.000     999.000     19.4     95     3.3     211    13.7   781.60   -2.96   125.90  
  16   20:00    0.000     999.000     19.4     96     3.0     212     9.0   781.60   -2.97   72.00  
  16   20:10    0.000     999.000     19.2     94     3.3     217     9.8   781.80   -2.96   176.00  
  16   20:20    0.000     999.000     19.2     96     3.8     218    10.1   781.90   -2.96   169.30  
  16   20:30    0.000     999.000     19.3     96     3.6     215     9.2   782.00   -2.96   110.50  
  16   20:40    0.000     999.000     19.4     96     4.5     233    17.5   782.20   -2.96   55.90  
  16   20:50    0.000     999.000     19.3     95     3.7     227    11.1   782.30   -2.96   169.50  
  16   21:00    0.000     999.000     19.0     94     3.4     228    13.3   782.30   -2.96   155.20  
  16   21:10    0.000     999.000     18.9     95     3.4     216    12.8   782.40   -2.96   164.00  
  16   21:20    0.000     999.000     18.9     96     2.8     230     9.4   782.40   -2.97   175.90  
  16   21:30    0.000     999.000     19.0     96     2.7     199     6.8   782.40   -2.96   176.00  
  16   21:40    0.000     999.000     19.1     96     2.8     216     6.9   782.60   -2.96   176.00  
  16   21:50    0.000     999.000     19.2     96     3.5     212     7.3   782.80   -2.96   80.70  
  16   22:00    0.000     999.000     19.3     96     3.6     220    12.5   782.90   -2.96   57.00  
  16   22:10    0.000     999.000     19.3     96     3.6     222     9.7   783.00   -2.96   56.60  
  16   22:20    0.000     999.000     19.3     96     2.9     215     9.0   783.10   -2.96   149.90  
  16   22:30    0.000     999.000     19.4     96     3.6     211     9.9   783.30   -2.96   168.40  
  16   22:40    0.000     999.000     19.5     96     4.1     218     9.9   783.50   -2.96   176.00  
  16   22:50    0.000     999.000     19.5     96     4.2     233    15.7   783.70   -2.96   130.00  
  16   23:00    0.000     999.000     19.3     96     3.4     196     8.9   783.80   -2.96   171.70  
  16   23:10    0.000     999.000     19.3     96     3.8     228    11.3   783.90   -2.96   134.00  
  16   23:20    0.000     999.000     19.4     96     4.8     229    12.2   784.10   -2.96   58.00  
  16   23:30    0.000     999.000     19.5     96     3.5     208    10.8   784.10   -2.96   138.10  
  16   23:40    0.000     999.000     19.5     96     3.2     211    10.5   784.10   -2.96   57.30  
  16   23:50    0.000     999.000     19.6     96     3.8     219    18.6   784.30   -2.96   170.10  
  17    0:00    0.000     999.000     19.5     96     3.7     213     8.5   784.40   -2.96   174.90  
  17    0:10    0.000     999.000     19.5     96     3.6     221    13.0   784.50   -2.96   56.90  
  17    0:20    0.000     999.000     19.4     96     2.9     241     8.3   784.60   -2.96   150.00  
  17    0:30    0.000     999.000     19.5     96     3.4     221    10.6   784.80   -2.97   152.30  
  17    0:40    0.000     999.000     19.4     96     4.1     224    12.2   785.00   -2.96   171.80  
  17    0:50    0.000     999.000     19.3     95     3.9     217     7.8   785.00   -2.96   172.80  
  17    1:00    0.000     999.000     19.3     95     3.9     212    10.9   785.20   -2.96   167.20  
  17    1:10    0.000     999.000     19.2     95     3.5     213     9.7   785.30   -2.96   172.30  
  17    1:20    0.000     999.000     19.2     96     4.6     233    13.4   785.40   -2.96   121.60  
  17    1:30    0.000     999.000     19.2     96     4.6     218    12.9   785.50   -2.96   58.40  
  17    1:40    0.000     999.000     19.1     96     4.5     223    13.9   785.60   -2.96   163.30  
  17    1:50    0.000     999.000     19.2     96     4.5     235    12.3   785.90   -2.96   155.10  
  17    2:00    0.000     999.000     19.1     95     4.6     230    17.1   786.10   -2.96   171.10  
  17    2:10    0.000     999.000     19.3     96     4.0     211    13.3   786.30   -2.96   176.00  
  17    2:20    0.000     999.000     19.4     96     3.2     215     9.6   786.40   -2.96   173.90  
  17    2:30    0.000     999.000     19.5     96     3.9     215    12.9   786.60   -2.96   176.00  
  17    2:40    0.000     999.000     19.4     96     5.1     212    12.0   786.90   -2.96   150.70  
  17    2:50    0.000     999.000     19.3     96     4.3     222    12.7   787.10   -2.96   59.50  
  17    3:00    0.000     999.000     19.0     93     4.2     236     9.8   787.30   -2.96   74.90  
  17    3:10    0.000     999.000     18.5     92     4.8     216    11.2   787.30   -2.96   161.10  
  17    3:20    0.000     999.000     18.1     93     5.0     219    13.6   787.40   -2.96   60.70  
  17    3:30    0.000     999.000     18.1     95     3.8     237     9.7   787.50   -2.96   58.30  
  17    3:40    0.000     999.000     18.2     95     2.9     210     7.6   787.60   -2.97   115.80  
  17    3:50    0.000     999.000     18.3     95     2.9     226     8.4   787.80   -2.97   172.80  

Return to Central Sierra Snow Lab graphs page.


Western Regional Climate Center,wrcc@dri.edu